Ash Fork, Arizona
Current Conditions -  °F | °C
As of 2:53 AM on Monday 22 Dec 2014 (Local Time) from KPRC Reporting Station
Clear Clear  
Wind Chill:   Ceiling: Unl
Heat Index:   Visibility: 10mi
Dew Point:   Wind: 9mph
Humidity: 63%   Direction: 280°W
Pressure: 30.08"   Gusts: NA
Location:  35.23°N, 112.49°W
Report Text: KPRC 220953Z AUTO 28008KT 10SM CLR 07/01 A3008 RMK AO2 SLP143 T00720006
Loading
Personal Weather Stations






























Interactive Weather Map New forecast layout! Learn more

10-Day Weather Forecast

Advertisements
Track Severe Weather on mobile